Terminal Aerodrome Forecast
Issued by NWS

Home | Current Version | Previous Version | Graphics & Text | Print | Product List | Glossary On
Versions: 1 2 3 4 5 6 7 8 9 10 11 12 13 14 15 16 17 18 19 20 21 22 23 24 25 26 27 28 29 30 31 32 33
000
FTUS43 KABR 181714 AAC
TAFMBG
TAF AMD
KMBG 181714Z 1817/1912 VRB05KT P6SM SCT015
      TEMPO 1817/1819 BKN015
     FM181900 08013KT P6SM BKN100
     FM182000 07013KT P6SM SCT250=

USA.gov is the U.S. government's official web portal to all federal, state and local government web resources and services.